• Join FlightAware (Why Join?)
  • Login
  • US Flag 
01:29AM EDT


 

Airport Tracker/Info


-or-


 

Live Flight TrackerFlight Track Log ✈ AWE3988 ✈ 02-May-2013 ✈ KMHT - KPHL

Flight Track Log - Related Links

Times and Time Zones

All times are in EDT time to prevent confusion due to time zone crossing. See the AWE3988 flight status page for this flight to view local times or setup timezone preferences in your user account.

Time Position Orientation Groundspeed Altitude Reporting Facility
EDT Latitude Longitude Course Direction KTS MPH feet Rate Location/Type
04:14PM 42.9667 -71.4167 360° North 201 231 2,600  Level KA90
04:15PM 43.0333 -71.3892 17° North 223 257 5,100 2,460 Climbing Boston Center
04:16PM 43.0756 -71.4567 311° West 231 266 7,800 2,700 Climbing Boston Center
04:17PM 42.9500 -71.9408 270° West  Level FlightAware Approximate
04:17PM 43.0889 -71.5700 279° West 254 292 10,500  Level Boston Center
04:18PM 42.9501 -72.0688 270° West  Level FlightAware Approximate
04:18PM 43.0856 -71.6781 268° West 291 335 12,500  Level Boston Center
04:19PM 42.9500 -72.1969 270° West  Level FlightAware Approximate
04:19PM 43.0781 -71.8206 266° West 332 382 14,500  Level Boston Center
04:20PM 43.0703 -71.9400 265° West 355 409 16,300 1,680 Climbing Boston Center
04:21PM 43.0647 -72.0906 267° West 367 422 17,900 1,680 Climbing Boston Center
04:22PM 43.0586 -72.2156 266° West 367 422 19,700 1,560 Climbing Boston Center
04:23PM 43.0569 -72.3578 269° West 367 422 21,100 1,320 Climbing Boston Center
04:24PM 43.0506 -72.5025 267° West 367 422 22,400 1,560 Climbing Boston Center
04:25PM 43.0336 -72.6617 262° West 381 438 24,300 1,560 Climbing Boston Center
04:26PM 43.0250 -72.8036 265° West 386 444 25,600 840 Climbing Boston Center
04:27PM 42.9975 -72.9425 255° West 386 444 26,000 180 Climbing Boston Center
04:28PM 42.9531 -73.0697 245° Southwest 400 460 26,000  Level Boston Center
04:29PM 42.9000 -73.2025 241° Southwest 400 460 26,000  Level Boston Center
04:30PM 42.8469 -73.3350 241° Southwest 400 460 26,000  Level Boston Center
04:31PM 42.7958 -73.4644 242° Southwest 400 460 26,000  Level Boston Center
04:32PM 42.7425 -73.5936 241° Southwest 394 453 26,000  Level Boston Center
04:33PM 42.6828 -73.7336 240° Southwest 394 453 26,000  Level Boston Center
04:34PM 42.6311 -73.8653 242° Southwest 399 459 26,000  Level Boston Center
04:35PM 42.5772 -73.9994 241° Southwest 399 459 26,000  Level Boston Center
04:36PM 42.5253 -74.1275 241° Southwest 399 459 26,000  Level Boston Center
04:37PM 42.4714 -74.2583 241° Southwest 399 459 26,000  Level Boston Center
04:39PM 42.4169 -74.3861 240° Southwest 399 459 26,000 -840 Level Boston Center
04:41PM 42.3232 -74.5821 240° Southwest  Level FlightAware Approximate
04:44PM 42.0736 -74.9758 209° Southwest 395 455 21,000  Level New York Center
04:45PM 41.9989 -75.0856 213° Southwest 400 460 19,500 -1,020 Descending New York Center
04:46PM 41.9436 -75.1240 220° Southwest  Level FlightAware Approximate
04:46PM 41.9058 -75.1853 219° Southwest 394 453 19,000  Level New York Center
04:47PM 41.8222 -75.2492 210° Southwest 393 452 18,700 -780 Descending New York Center
04:48PM 41.8894 -75.1868 209° Southwest  Level FlightAware Approximate
04:48PM 41.7297 -75.3264 212° Southwest 398 458 17,500  Level New York Center
04:49PM 41.8086 -75.2461 209° Southwest  Level FlightAware Approximate
04:49PM 41.6394 -75.3978 211° Southwest 368 423 15,700  Level New York Center
04:50PM 41.5536 -75.4669 211° Southwest 361 415 14,200 -1,620 Descending New York Center
04:51PM 41.4761 -75.5306 212° Southwest 360 414 12,600 -1,140 Descending New York Center
04:52PM 41.3922 -75.5967 211° Southwest 360 414 12,000 -300 Descending New York Center
04:53PM 41.4725 -75.5165 213° Southwest  Level FlightAware Approximate
04:53PM 41.3103 -75.6597 210° Southwest 354 407 12,000  Level New York Center
04:54PM 41.2156 -75.6861 192° South 339 390 12,000  Level New York Center
04:55PM 41.1239 -75.6875 181° South 322 371 12,000  Level New York Center
04:56PM 41.0344 -75.6867 180° South 327 376 12,000  Level New York Center
04:57PM 40.9511 -75.6861 180° South 327 376 12,000  Level New York Center
04:58PM 40.8489 -75.6869 180° South 333 383 12,000  Level New York Center
04:59PM 40.7572 -75.6858 179° South 333 383 12,000  Level New York Center
05:00PM 40.6719 -75.6853 180° South 333 383 12,000  Level New York Center
05:01PM 40.5828 -75.6706 173° South 333 383 12,000  Level New York Center
05:02PM 40.5244 -75.5708 128° Southeast 300 345 12,000 -600 Level New York Center
05:03PM 40.4817 -75.4914 125° Southeast 295 339 10,900 -1,020 Descending New York Center
05:04PM 40.4350 -75.4119 128° Southeast 288 331 10,000 -960 Descending New York Center
05:05PM 40.3533 -75.4200 184° South 248 285 9,000 -1,440 Descending New York Center
05:06PM 40.2692 -75.4417 191° South 273 314 7,200 -1,620 Descending New York Center
05:07PM 40.1961 -75.4394 179° South 278 320 5,800 -1,140 Descending New York Center
05:08PM 40.1308 -75.4078 160° South 255 293 5,000 -420 Descending New York Center
05:09PM 40.0608 -75.3842 166° South 255 293 5,000 -60 Level New York Center
05:10PM 40.0011 -75.3667 167° South 255 293 4,900 -480 Descending New York Center
05:11PM 39.9394 -75.3464 166° South 237 273 4,100 -480 Descending New York Center
05:12PM 39.8919 -75.3325 167° South 209 241 4,000 -60 Descending New York Center
05:13PM 39.8406 -75.3103 162° South 198 228 4,000 -480 Level New York Center
05:14PM 39.7850 -75.2931 167° South 198 228 3,100 -1,020 Descending New York Center
05:15PM 39.7317 -75.2708 162° South 198 228 2,000 -780 Descending New York Center
05:16PM 39.7442 -75.2147 74° East 138 159 1,600 -360 Descending New York Center
05:16PM 39.7667 -75.2000 27° Northeast 187 215 1,600  Level Philadelphia TRACON